createdAt,value
2023-01-25T00:00:14.039Z,19.73
2023-01-25T00:02:40.556Z,18.55
2023-01-25T00:05:07.670Z,18.55
2023-01-25T00:07:34.548Z,20.40
2023-01-25T00:10:01.106Z,19.73
2023-01-25T00:12:27.720Z,19.38
2023-01-25T00:14:54.197Z,17.25
2023-01-25T00:17:20.680Z,17.58
2023-01-25T00:19:47.154Z,17.98
2023-01-25T00:22:13.678Z,17.60
2023-01-25T00:24:40.381Z,17.88
2023-01-25T00:27:06.886Z,17.00
2023-01-25T00:29:33.376Z,17.85
2023-01-25T00:32:10.978Z,17.27
2023-01-25T00:34:47.177Z,18.10
2023-01-25T00:37:39.670Z,17.33
2023-01-25T00:40:06.686Z,17.88
2023-01-25T00:42:33.317Z,19.27
2023-01-25T00:44:59.810Z,19.02
2023-01-25T00:47:26.513Z,18.10
2023-01-25T00:49:53.208Z,19.63
2023-01-25T00:52:20.685Z,18.40
2023-01-25T00:54:47.392Z,18.98
2023-01-25T00:57:13.954Z,18.33
2023-01-25T00:59:44.319Z,17.38
2023-01-25T01:02:12.027Z,17.50
2023-01-25T01:04:38.679Z,17.35
2023-01-25T01:07:05.465Z,18.05
2023-01-25T01:09:32.526Z,17.73
2023-01-25T01:11:59.064Z,17.88
2023-01-25T01:14:25.683Z,19.58
2023-01-25T01:16:52.238Z,19.98
2023-01-25T01:19:19.098Z,20.33
2023-01-25T01:21:45.616Z,19.73
2023-01-25T01:24:12.220Z,20.35
2023-01-25T01:26:38.884Z,18.88
2023-01-25T01:29:06.023Z,18.65
2023-01-25T01:31:33.297Z,19.75
2023-01-25T01:34:12.528Z,19.40
2023-01-25T01:36:39.273Z,21.10
2023-01-25T01:39:06.031Z,21.08
2023-01-25T01:41:33.289Z,20.63
2023-01-25T01:43:59.812Z,19.77
2023-01-25T01:46:35.057Z,20.10
2023-01-25T01:49:05.874Z,19.58
2023-01-25T01:51:48.689Z,20.08
2023-01-25T01:54:27.383Z,19.85
2023-01-25T01:57:04.421Z,19.10
2023-01-25T01:59:34.152Z,20.77
2023-01-25T02:02:00.827Z,21.40
2023-01-25T02:04:27.993Z,21.25
2023-01-25T02:07:05.972Z,21.65
2023-01-25T02:09:34.183Z,21.15
2023-01-25T02:12:00.930Z,21.42
2023-01-25T02:14:30.767Z,21.95
2023-01-25T02:16:59.378Z,21.15
2023-01-25T02:19:48.043Z,22.60
2023-01-25T02:22:16.359Z,21.90
2023-01-25T02:24:47.432Z,21.40
2023-01-25T02:27:13.995Z,22.27
2023-01-25T02:29:40.948Z,22.90
2023-01-25T02:32:07.569Z,20.88
2023-01-25T02:34:35.623Z,22.35
2023-01-25T02:37:03.327Z,21.77
2023-01-25T02:39:30.050Z,22.10
2023-01-25T02:41:56.531Z,23.30
2023-01-25T02:44:28.235Z,22.23
2023-01-25T02:46:56.549Z,22.10
2023-01-25T02:49:23.308Z,22.35
2023-01-25T02:51:53.172Z,21.40
2023-01-25T02:54:20.699Z,22.02
2023-01-25T02:56:47.205Z,21.95
2023-01-25T02:59:14.608Z,23.85
2023-01-25T03:01:45.775Z,22.58
2023-01-25T03:04:12.659Z,22.60
2023-01-25T03:06:39.716Z,21.52
2023-01-25T03:09:08.881Z,21.65
2023-01-25T03:11:37.406Z,23.13
2023-01-25T03:14:04.031Z,23.50
2023-01-25T03:16:31.627Z,23.85
2023-01-25T03:18:59.523Z,22.80
2023-01-25T03:21:26.150Z,22.38
2023-01-25T03:23:58.349Z,23.08
2023-01-25T03:26:26.924Z,22.88
2023-01-25T03:29:16.068Z,23.38
2023-01-25T03:31:44.401Z,23.23
2023-01-25T03:34:11.822Z,21.88
2023-01-25T03:36:41.604Z,23.65
2023-01-25T03:39:08.114Z,22.70
2023-01-25T03:41:39.486Z,22.92
2023-01-25T03:44:11.410Z,22.27
2023-01-25T03:46:38.887Z,23.83
2023-01-25T03:49:06.142Z,24.02
2023-01-25T03:51:33.506Z,22.60
2023-01-25T03:54:00.152Z,23.77
2023-01-25T03:56:27.565Z,23.55
2023-01-25T03:59:01.476Z,22.50
2023-01-25T04:01:28.009Z,24.02
2023-01-25T04:03:54.639Z,22.50
2023-01-25T04:06:21.214Z,21.55
2023-01-25T04:08:47.886Z,24.00
2023-01-25T04:11:14.766Z,23.63
2023-01-25T04:13:44.410Z,23.88
2023-01-25T04:16:13.561Z,23.40
2023-01-25T04:19:02.726Z,23.98
2023-01-25T04:21:30.982Z,23.17
2023-01-25T04:23:57.720Z,24.35
2023-01-25T04:26:24.847Z,22.27
2023-01-25T04:28:58.396Z,21.65
2023-01-25T04:31:25.372Z,21.08
2023-01-25T04:33:52.568Z,21.98
2023-01-25T04:36:20.326Z,21.42
2023-01-25T04:38:47.729Z,23.00
2023-01-25T04:41:14.859Z,22.10
2023-01-25T04:43:42.920Z,23.70
2023-01-25T04:46:10.492Z,21.75
2023-01-25T04:48:37.495Z,22.92
2023-01-25T04:51:06.528Z,21.35
2023-01-25T04:53:34.294Z,23.45
2023-01-25T04:56:02.147Z,22.70
2023-01-25T04:58:33.064Z,23.55
2023-01-25T05:01:02.301Z,22.73
2023-01-25T05:03:29.183Z,23.10
2023-01-25T05:05:56.179Z,22.67
2023-01-25T05:08:26.097Z,23.58
2023-01-25T05:10:55.627Z,22.83
2023-01-25T05:13:22.145Z,23.60
2023-01-25T05:15:56.597Z,23.70
2023-01-25T05:18:23.761Z,22.58
2023-01-25T05:20:56.341Z,22.70
2023-01-25T05:23:25.166Z,24.27
2023-01-25T05:26:11.402Z,22.88
2023-01-25T05:28:38.295Z,24.42
2023-01-25T05:31:15.500Z,23.92
2023-01-25T05:33:42.624Z,23.98
2023-01-25T05:36:10.053Z,22.88
2023-01-25T05:38:37.713Z,24.75
2023-01-25T05:41:04.386Z,24.50
2023-01-25T05:43:30.978Z,24.20
2023-01-25T05:45:58.537Z,23.38
2023-01-25T05:48:25.495Z,25.63
2023-01-25T05:50:52.679Z,24.30
2023-01-25T05:53:26.893Z,24.73
2023-01-25T05:55:53.907Z,24.73
2023-01-25T05:58:20.610Z,23.15
2023-01-25T06:00:47.227Z,25.13
2023-01-25T06:03:24.397Z,24.83
2023-01-25T06:06:03.980Z,26.52
2023-01-25T06:08:32.677Z,24.52
2023-01-25T06:10:59.163Z,25.95
2023-01-25T06:13:26.002Z,24.05
2023-01-25T06:15:54.907Z,21.88
2023-01-25T06:18:45.020Z,23.92
2023-01-25T06:21:29.884Z,24.13
2023-01-25T06:23:56.525Z,22.10
2023-01-25T06:26:23.139Z,23.33
2023-01-25T06:28:50.665Z,23.60
2023-01-25T06:31:18.662Z,24.20
2023-01-25T06:33:49.405Z,24.17
2023-01-25T06:36:18.610Z,24.92
2023-01-25T06:38:50.484Z,25.65
2023-01-25T06:41:17.186Z,23.52
2023-01-25T06:43:43.744Z,25.10
2023-01-25T06:46:12.040Z,26.48
2023-01-25T06:48:39.091Z,23.25
2023-01-25T06:51:07.625Z,23.30
2023-01-25T06:53:39.501Z,23.08
2023-01-25T06:56:10.859Z,23.48
2023-01-25T06:58:38.659Z,23.27
2023-01-25T07:01:07.474Z,23.27
2023-01-25T07:03:34.589Z,24.25
2023-01-25T07:06:02.890Z,23.42
2023-01-25T07:08:29.915Z,23.55
2023-01-25T07:10:57.908Z,23.77
2023-01-25T07:13:26.079Z,23.77
2023-01-25T07:16:00.796Z,25.27
2023-01-25T07:18:28.534Z,25.00
2023-01-25T07:20:55.102Z,25.27
2023-01-25T07:23:21.767Z,24.60
2023-01-25T07:25:50.083Z,24.15
2023-01-25T07:28:17.495Z,23.83
2023-01-25T07:30:44.448Z,25.58
2023-01-25T07:33:11.317Z,25.92
2023-01-25T07:35:38.122Z,25.95
2023-01-25T07:38:04.748Z,24.48
2023-01-25T07:40:31.332Z,24.27
2023-01-25T07:42:58.692Z,27.33
2023-01-25T07:45:30.299Z,23.75
2023-01-25T07:47:58.157Z,21.65
2023-01-25T07:50:28.976Z,21.25
2023-01-25T07:52:55.517Z,22.38
2023-01-25T07:55:22.195Z,21.88
2023-01-25T07:57:48.824Z,21.73
2023-01-25T08:00:15.802Z,23.48
2023-01-25T08:02:42.836Z,23.73
2023-01-25T08:05:09.802Z,23.77
2023-01-25T08:07:36.559Z,23.92
2023-01-25T08:10:03.206Z,24.75
2023-01-25T08:12:29.760Z,24.65
2023-01-25T08:14:56.685Z,25.27
2023-01-25T08:17:23.175Z,24.15
2023-01-25T08:19:49.709Z,22.90
2023-01-25T08:22:16.210Z,22.40
2023-01-25T08:24:42.864Z,23.90
2023-01-25T08:27:09.441Z,24.15
2023-01-25T08:29:35.959Z,22.25
2023-01-25T08:32:04.313Z,25.02
2023-01-25T08:34:33.341Z,24.00
2023-01-25T08:37:00.035Z,22.58
2023-01-25T08:39:26.687Z,23.45
2023-01-25T08:41:53.221Z,23.42
2023-01-25T08:44:24.073Z,22.88
2023-01-25T08:46:50.631Z,22.20
2023-01-25T08:49:17.294Z,22.25
2023-01-25T08:51:43.922Z,23.13
2023-01-25T08:54:12.256Z,23.67
2023-01-25T08:56:40.014Z,25.95
2023-01-25T08:59:07.750Z,23.42
2023-01-25T09:01:34.333Z,24.02
2023-01-25T09:04:01.049Z,21.30
2023-01-25T09:06:27.662Z,24.77
2023-01-25T09:08:54.750Z,24.13
2023-01-25T09:11:22.366Z,24.92
2023-01-25T09:13:49.691Z,24.40
2023-01-25T09:16:22.659Z,24.58
2023-01-25T09:18:50.919Z,24.63
2023-01-25T09:21:18.483Z,23.92
2023-01-25T09:24:05.381Z,26.13
2023-01-25T09:26:33.952Z,27.13
2023-01-25T09:29:00.644Z,28.10
2023-01-25T09:31:30.491Z,28.52
2023-01-25T09:34:16.395Z,27.83
2023-01-25T09:36:43.014Z,28.42
2023-01-25T09:39:12.143Z,29.65
2023-01-25T09:42:20.499Z,27.88
2023-01-25T09:45:03.142Z,25.27
2023-01-25T09:47:32.460Z,26.13
2023-01-25T09:50:13.817Z,26.83
2023-01-25T09:52:46.179Z,27.25
2023-01-25T09:55:15.215Z,27.25
2023-01-25T09:57:42.766Z,26.00
2023-01-25T10:00:16.738Z,27.77
2023-01-25T10:03:13.783Z,25.77
2023-01-25T10:05:46.068Z,25.58
2023-01-25T10:08:43.247Z,27.20
2023-01-25T10:11:25.956Z,26.23
2023-01-25T10:13:52.583Z,26.50
2023-01-25T10:16:26.379Z,26.60
2023-01-25T10:19:10.388Z,28.77
2023-01-25T10:21:47.235Z,27.90
2023-01-25T10:24:34.906Z,29.88
2023-01-25T10:27:24.136Z,27.35
2023-01-25T10:29:52.380Z,29.02
2023-01-25T10:32:32.465Z,27.05
2023-01-25T10:35:05.919Z,29.55
2023-01-25T10:37:34.432Z,29.23
2023-01-25T10:40:13.321Z,28.10
2023-01-25T10:42:44.624Z,29.17
2023-01-25T10:45:12.782Z,28.45
2023-01-25T10:47:42.233Z,27.58
2023-01-25T10:50:09.381Z,28.60
2023-01-25T10:52:37.721Z,27.33
2023-01-25T10:55:23.529Z,27.13
2023-01-25T10:57:51.958Z,27.85
2023-01-25T11:00:30.518Z,26.40
2023-01-25T11:02:57.684Z,28.13
2023-01-25T11:05:26.508Z,27.13
2023-01-25T11:07:53.275Z,27.85
2023-01-25T11:10:34.864Z,28.88
2023-01-25T11:13:16.463Z,27.02
2023-01-25T11:15:44.941Z,27.02
2023-01-25T11:18:16.197Z,27.60
2023-01-25T11:20:42.745Z,27.48
2023-01-25T11:23:23.715Z,28.17
2023-01-25T11:25:50.563Z,29.65
2023-01-25T11:28:19.790Z,27.92
2023-01-25T11:30:47.141Z,29.17
2023-01-25T11:33:15.178Z,28.60
2023-01-25T11:35:52.839Z,30.20
2023-01-25T11:38:22.199Z,28.52
2023-01-25T11:41:00.945Z,29.10
2023-01-25T11:44:05.600Z,26.85
2023-01-25T11:47:13.378Z,27.75
2023-01-25T11:49:44.888Z,28.98
2023-01-25T11:52:23.675Z,28.70
2023-01-25T11:54:58.743Z,28.08
2023-01-25T11:57:49.356Z,30.42
2023-01-25T12:00:47.122Z,28.55
2023-01-25T12:03:36.988Z,31.08
2023-01-25T12:06:03.544Z,29.30
2023-01-25T12:09:01.220Z,28.38
2023-01-25T12:11:46.861Z,29.75
2023-01-25T12:14:19.123Z,29.05
2023-01-25T12:16:55.744Z,29.13
2023-01-25T12:19:38.133Z,29.55
2023-01-25T12:22:07.356Z,31.95
2023-01-25T12:24:56.907Z,31.08
2023-01-25T12:27:38.471Z,32.15
2023-01-25T12:30:34.786Z,31.73
2023-01-25T12:33:15.486Z,30.17
2023-01-25T12:35:43.433Z,32.17
2023-01-25T12:38:24.946Z,32.65
2023-01-25T12:41:04.611Z,30.50
2023-01-25T12:43:41.941Z,29.98
2023-01-25T12:46:18.542Z,29.05
2023-01-25T12:48:49.313Z,29.92
2023-01-25T12:51:16.545Z,31.20
2023-01-25T12:53:47.220Z,29.70
2023-01-25T12:56:43.917Z,28.80
2023-01-25T12:59:21.780Z,30.02
2023-01-25T13:01:52.116Z,30.67
2023-01-25T13:04:43.187Z,31.83
2023-01-25T13:07:20.040Z,29.63
2023-01-25T13:09:59.703Z,28.95
2023-01-25T13:12:26.216Z,29.23
2023-01-25T13:14:53.108Z,27.02
2023-01-25T13:17:34.259Z,27.80
2023-01-25T13:20:09.035Z,29.42
2023-01-25T13:22:54.911Z,28.83
2023-01-25T13:25:22.792Z,29.88
2023-01-25T13:27:49.350Z,30.02
2023-01-25T13:30:15.972Z,29.35
2023-01-25T13:32:45.448Z,27.55
2023-01-25T13:35:35.097Z,30.55
2023-01-25T13:38:24.732Z,30.23
2023-01-25T13:41:17.627Z,28.98
2023-01-25T13:43:46.978Z,30.60
2023-01-25T13:46:16.390Z,31.17
2023-01-25T13:48:54.262Z,31.05
2023-01-25T13:51:20.886Z,32.28
2023-01-25T13:53:56.265Z,31.77
2023-01-25T13:56:40.643Z,30.20
2023-01-25T13:59:07.149Z,30.13
2023-01-25T14:01:35.432Z,29.98
2023-01-25T14:04:04.213Z,27.02
2023-01-25T14:06:33.880Z,29.40
2023-01-25T14:09:07.316Z,28.58
2023-01-25T14:11:36.531Z,28.48
2023-01-25T14:14:28.987Z,29.95
2023-01-25T14:17:20.057Z,29.17
2023-01-25T14:19:51.717Z,28.27
2023-01-25T14:22:30.836Z,31.30
2023-01-25T14:25:11.358Z,29.38
2023-01-25T14:27:43.948Z,30.25
2023-01-25T14:30:19.848Z,31.77
2023-01-25T14:32:46.421Z,31.35
2023-01-25T14:35:35.984Z,30.02
2023-01-25T14:38:29.727Z,31.60
2023-01-25T14:41:16.552Z,31.17
2023-01-25T14:43:45.985Z,30.67
2023-01-25T14:46:21.159Z,33.05
2023-01-25T14:48:47.860Z,27.55
2023-01-25T14:51:18.704Z,28.83
2023-01-25T14:53:49.034Z,30.65
2023-01-25T14:56:28.099Z,30.85
2023-01-25T14:58:59.879Z,30.95
2023-01-25T15:01:33.090Z,27.38
2023-01-25T15:03:59.715Z,30.55
2023-01-25T15:06:26.335Z,29.08
2023-01-25T15:08:53.023Z,30.05
2023-01-25T15:11:46.100Z,28.00
2023-01-25T15:14:16.526Z,31.83
2023-01-25T15:16:43.162Z,29.77
2023-01-25T15:19:27.236Z,29.98
2023-01-25T15:21:55.466Z,28.50
2023-01-25T15:24:22.314Z,29.90
2023-01-25T15:26:50.570Z,27.98
2023-01-25T15:29:27.184Z,29.13
2023-01-25T15:31:55.725Z,29.23
2023-01-25T15:34:30.235Z,29.17
2023-01-25T15:36:56.926Z,28.58
2023-01-25T15:39:23.442Z,29.75
2023-01-25T15:41:50.100Z,26.73
2023-01-25T15:44:17.537Z,31.55
2023-01-25T15:46:46.500Z,28.33
2023-01-25T15:49:27.824Z,27.08
2023-01-25T15:51:55.400Z,29.98
2023-01-25T15:54:22.218Z,27.30
2023-01-25T15:56:57.003Z,28.90
2023-01-25T15:59:23.879Z,28.30
2023-01-25T16:01:50.605Z,29.33
2023-01-25T16:04:17.145Z,27.90
2023-01-25T16:06:44.363Z,26.55
2023-01-25T16:09:19.687Z,29.67
2023-01-25T16:11:47.986Z,29.13
2023-01-25T16:14:14.610Z,29.77
2023-01-25T16:16:47.636Z,29.58
2023-01-25T16:19:15.732Z,28.65
2023-01-25T16:21:42.931Z,29.95
2023-01-25T16:24:11.021Z,32.22
2023-01-25T16:26:50.282Z,32.80
2023-01-25T16:29:17.537Z,29.92
2023-01-25T16:31:44.438Z,28.65
2023-01-25T16:34:11.239Z,30.00
2023-01-25T16:36:39.534Z,28.38
2023-01-25T16:39:21.113Z,29.00
2023-01-25T16:41:48.567Z,30.77
2023-01-25T16:44:15.718Z,28.13
2023-01-25T16:46:42.772Z,31.88
2023-01-25T16:49:15.450Z,58.45
2023-01-25T16:51:42.009Z,31.75
2023-01-25T16:54:09.908Z,28.80
2023-01-25T16:56:36.454Z,31.13
2023-01-25T16:59:05.050Z,31.17
2023-01-25T17:01:31.956Z,28.83
2023-01-25T17:03:58.957Z,29.40
2023-01-25T17:06:28.327Z,31.35
2023-01-25T17:08:56.190Z,29.30
2023-01-25T17:11:23.209Z,29.65
2023-01-25T17:13:54.775Z,29.67
2023-01-25T17:16:22.879Z,28.88
2023-01-25T17:18:54.683Z,28.77
2023-01-25T17:21:21.189Z,31.48
2023-01-25T17:23:48.226Z,32.63
2023-01-25T17:26:15.839Z,30.40
2023-01-25T17:28:43.404Z,30.80
2023-01-25T17:31:22.204Z,34.42
2023-01-25T17:33:49.437Z,34.10
2023-01-25T17:36:16.259Z,32.10
2023-01-25T17:38:43.137Z,35.40
2023-01-25T17:41:12.882Z,33.78
2023-01-25T17:43:39.595Z,33.70
2023-01-25T17:46:26.120Z,33.28
2023-01-25T17:48:55.969Z,35.50
2023-01-25T17:51:24.796Z,35.22
2023-01-25T17:53:52.101Z,39.60
2023-01-25T17:56:21.791Z,37.50
2023-01-25T17:58:48.354Z,38.65
2023-01-25T18:01:16.118Z,39.58
2023-01-25T18:03:43.580Z,38.42
2023-01-25T18:06:11.927Z,40.42
2023-01-25T18:08:45.508Z,39.45
2023-01-25T18:11:18.037Z,42.20
2023-01-25T18:13:49.709Z,41.13
2023-01-25T18:16:17.853Z,43.70
2023-01-25T18:18:45.549Z,41.85
2023-01-25T18:21:17.068Z,45.35
2023-01-25T18:23:46.537Z,45.15
2023-01-25T18:26:27.099Z,49.22
2023-01-25T18:28:55.153Z,46.70
2023-01-25T18:31:21.748Z,45.13
2023-01-25T18:33:48.352Z,46.35
2023-01-25T18:36:16.312Z,46.85
2023-01-25T18:38:42.866Z,46.72
2023-01-25T18:41:11.848Z,46.17
2023-01-25T18:43:38.561Z,45.03
2023-01-25T18:46:05.230Z,47.13
2023-01-25T18:48:32.112Z,45.53
2023-01-25T18:51:11.129Z,45.80
2023-01-25T18:53:39.302Z,43.92
2023-01-25T18:56:08.254Z,40.75
2023-01-25T18:58:36.485Z,45.25
2023-01-25T19:01:10.378Z,43.28
2023-01-25T19:03:36.950Z,43.15
2023-01-25T19:06:04.444Z,42.13
2023-01-25T19:08:36.415Z,44.78
2023-01-25T19:11:08.566Z,44.63
2023-01-25T19:13:36.892Z,47.60
2023-01-25T19:16:05.768Z,44.60
2023-01-25T19:18:34.109Z,44.65
2023-01-25T19:21:01.046Z,42.13
2023-01-25T19:23:33.208Z,43.75
2023-01-25T19:25:59.746Z,43.90
2023-01-25T19:28:26.362Z,42.10
2023-01-25T19:30:52.950Z,45.28
2023-01-25T19:33:19.554Z,44.83
2023-01-25T19:35:46.145Z,46.08
2023-01-25T19:38:12.775Z,44.17
2023-01-25T19:40:40.235Z,45.10
2023-01-25T19:43:06.782Z,45.60
2023-01-25T19:45:33.348Z,43.45
2023-01-25T19:48:00.017Z,41.70
2023-01-25T19:50:27.515Z,43.67
2023-01-25T19:52:55.087Z,41.20
2023-01-25T19:55:21.564Z,40.83
2023-01-25T19:57:48.181Z,43.90
2023-01-25T20:00:15.300Z,42.22
2023-01-25T20:02:42.035Z,41.72
2023-01-25T20:05:09.883Z,40.45
2023-01-25T20:07:36.561Z,40.40
2023-01-25T20:10:03.769Z,43.25
2023-01-25T20:12:30.368Z,42.17
2023-01-25T20:14:57.093Z,42.65
2023-01-25T20:17:23.676Z,41.92
2023-01-25T20:19:50.488Z,42.85
2023-01-25T20:22:17.461Z,41.63
2023-01-25T20:24:43.983Z,44.28
2023-01-25T20:27:10.598Z,44.22
2023-01-25T20:29:37.145Z,43.85
2023-01-25T20:32:05.748Z,41.25
2023-01-25T20:34:32.673Z,43.92
2023-01-25T20:37:00.218Z,42.25
2023-01-25T20:39:27.011Z,40.80
2023-01-25T20:41:54.055Z,40.38
2023-01-25T20:44:21.236Z,41.03
2023-01-25T20:46:48.768Z,42.53
2023-01-25T20:49:17.664Z,37.85
2023-01-25T20:51:44.842Z,40.42
2023-01-25T20:54:11.965Z,40.13
2023-01-25T20:56:38.951Z,41.33
2023-01-25T20:59:06.074Z,36.40
2023-01-25T21:01:36.543Z,38.67
2023-01-25T21:04:04.233Z,39.53
2023-01-25T21:06:30.844Z,38.13
2023-01-25T21:08:59.130Z,37.50
2023-01-25T21:11:26.104Z,39.38
2023-01-25T21:13:53.941Z,38.95
2023-01-25T21:16:24.220Z,37.47
2023-01-25T21:19:05.070Z,39.78
2023-01-25T21:21:34.484Z,36.92
2023-01-25T21:24:02.515Z,38.20
2023-01-25T21:26:31.172Z,41.33
2023-01-25T21:28:59.204Z,40.35
2023-01-25T21:31:27.769Z,39.55
2023-01-25T21:33:55.024Z,38.08
2023-01-25T21:36:21.929Z,40.08
2023-01-25T21:38:50.465Z,40.10
2023-01-25T21:41:25.199Z,38.33
2023-01-25T21:44:12.172Z,38.63
2023-01-25T21:46:38.889Z,39.25
2023-01-25T21:49:25.922Z,39.67
2023-01-25T21:51:54.788Z,36.65
2023-01-25T21:54:26.299Z,36.63
2023-01-25T21:56:54.903Z,38.30
2023-01-25T21:59:22.057Z,35.15
2023-01-25T22:01:49.280Z,34.13
2023-01-25T22:04:18.382Z,31.35
2023-01-25T22:06:45.680Z,34.58
2023-01-25T22:09:13.319Z,33.97
2023-01-25T22:11:40.415Z,35.65
2023-01-25T22:14:07.684Z,34.67
2023-01-25T22:16:34.216Z,34.08
2023-01-25T22:19:00.707Z,33.65
2023-01-25T22:21:30.589Z,37.30
2023-01-25T22:23:58.025Z,38.45
2023-01-25T22:26:26.801Z,36.58
2023-01-25T22:28:58.293Z,35.50
2023-01-25T22:31:30.016Z,35.17
2023-01-25T22:33:58.195Z,33.10
2023-01-25T22:36:26.968Z,35.40
2023-01-25T22:38:53.502Z,33.65
2023-01-25T22:41:22.729Z,34.53
2023-01-25T22:43:49.599Z,36.53
2023-01-25T22:46:20.664Z,37.45
2023-01-25T22:51:20.310Z,37.42
2023-01-25T22:53:47.350Z,36.67
2023-01-25T22:56:18.962Z,34.80
2023-01-25T22:58:46.528Z,35.42
2023-01-25T23:01:17.756Z,36.75
2023-01-25T23:03:44.384Z,37.08
2023-01-25T23:06:16.203Z,36.33
2023-01-25T23:08:43.152Z,34.20
2023-01-25T23:11:20.823Z,36.20
2023-01-25T23:14:06.367Z,36.88
2023-01-25T23:16:35.838Z,37.17
2023-01-25T23:19:04.119Z,37.33
2023-01-25T23:21:31.325Z,37.22
2023-01-25T23:24:02.393Z,34.30
2023-01-25T23:26:33.943Z,37.33
2023-01-25T23:29:00.449Z,34.97
2023-01-25T23:31:27.126Z,37.33
2023-01-25T23:33:55.805Z,38.10
2023-01-25T23:36:24.607Z,38.00
2023-01-25T23:38:51.753Z,39.65
2023-01-25T23:41:19.738Z,35.65
2023-01-25T23:43:46.486Z,37.25
2023-01-25T23:46:16.194Z,36.90
2023-01-25T23:48:43.942Z,35.92
2023-01-25T23:51:11.195Z,37.50
2023-01-25T23:53:38.421Z,37.80
2023-01-25T23:56:07.954Z,36.80
2023-01-25T23:58:35.606Z,35.90
